sensor_id;sensor_type;location;lat;lon;timestamp;pressure;altitude;pressure_sealevel;temperature;humidity
59531;BME280;45349;48.692;8.186;2022-07-06T00:00:12;99261.44;;;16.32;63.52
59531;BME280;45349;48.692;8.186;2022-07-06T00:02:40;99254.88;;;16.28;63.36
59531;BME280;45349;48.692;8.186;2022-07-06T00:05:07;99249.75;;;16.35;64.14
59531;BME280;45349;48.692;8.186;2022-07-06T00:07:34;99251.59;;;16.26;63.75
59531;BME280;45349;48.692;8.186;2022-07-06T00:10:03;99252.28;;;16.20;63.13
59531;BME280;45349;48.692;8.186;2022-07-06T00:12:30;99251.47;;;16.19;63.92
59531;BME280;45349;48.692;8.186;2022-07-06T00:14:57;99260.72;;;16.15;64.26
59531;BME280;45349;48.692;8.186;2022-07-06T00:17:24;99262.50;;;16.15;63.88
59531;BME280;45349;48.692;8.186;2022-07-06T00:19:51;99261.56;;;16.07;63.51
59531;BME280;45349;48.692;8.186;2022-07-06T00:22:18;99258.78;;;16.09;64.22
59531;BME280;45349;48.692;8.186;2022-07-06T00:24:45;99259.59;;;16.01;63.36
59531;BME280;45349;48.692;8.186;2022-07-06T00:27:13;99266.19;;;15.97;64.16
59531;BME280;45349;48.692;8.186;2022-07-06T00:29:40;99261.28;;;15.94;64.85
59531;BME280;45349;48.692;8.186;2022-07-06T00:32:10;99263.63;;;15.89;63.96
59531;BME280;45349;48.692;8.186;2022-07-06T00:34:38;99258.81;;;15.84;64.39
59531;BME280;45349;48.692;8.186;2022-07-06T00:37:05;99268.38;;;15.77;64.79
59531;BME280;45349;48.692;8.186;2022-07-06T00:39:32;99270.34;;;15.75;65.58
59531;BME280;45349;48.692;8.186;2022-07-06T00:42:00;99271.53;;;15.64;65.36
59531;BME280;45349;48.692;8.186;2022-07-06T00:44:28;99276.50;;;15.59;66.16
59531;BME280;45349;48.692;8.186;2022-07-06T00:46:57;99280.78;;;15.52;66.05
59531;BME280;45349;48.692;8.186;2022-07-06T00:49:23;99281.75;;;15.50;67.00
59531;BME280;45349;48.692;8.186;2022-07-06T00:52:09;99279.28;;;15.57;65.20
59531;BME280;45349;48.692;8.186;2022-07-06T00:54:38;99282.09;;;15.56;65.45
59531;BME280;45349;48.692;8.186;2022-07-06T00:57:06;99281.59;;;15.52;65.91
59531;BME280;45349;48.692;8.186;2022-07-06T00:59:35;99281.59;;;15.44;66.23
59531;BME280;45349;48.692;8.186;2022-07-06T01:02:01;99290.31;;;15.44;66.78
59531;BME280;45349;48.692;8.186;2022-07-06T01:04:28;99286.88;;;15.35;66.20
59531;BME280;45349;48.692;8.186;2022-07-06T01:06:56;99285.72;;;15.38;66.86
59531;BME280;45349;48.692;8.186;2022-07-06T01:09:23;99282.44;;;15.36;67.12
59531;BME280;45349;48.692;8.186;2022-07-06T01:11:51;99280.66;;;15.28;66.65
59531;BME280;45349;48.692;8.186;2022-07-06T01:14:20;99289.19;;;15.30;66.80
59531;BME280;45349;48.692;8.186;2022-07-06T01:16:48;99280.31;;;15.23;66.29
59531;BME280;45349;48.692;8.186;2022-07-06T01:19:15;99269.47;;;15.26;67.46
59531;BME280;45349;48.692;8.186;2022-07-06T01:21:44;99274.88;;;15.16;67.53
59531;BME280;45349;48.692;8.186;2022-07-06T01:24:11;99277.81;;;15.05;67.43
59531;BME280;45349;48.692;8.186;2022-07-06T01:26:38;99278.16;;;15.10;68.68
59531;BME280;45349;48.692;8.186;2022-07-06T01:29:05;99258.09;;;15.01;68.69
59531;BME280;45349;48.692;8.186;2022-07-06T01:31:32;99268.94;;;14.98;68.10
59531;BME280;45349;48.692;8.186;2022-07-06T01:33:58;99265.00;;;14.85;67.98
59531;BME280;45349;48.692;8.186;2022-07-06T01:36:25;99267.47;;;14.87;68.20
59531;BME280;45349;48.692;8.186;2022-07-06T01:38:54;99268.97;;;14.81;69.47
59531;BME280;45349;48.692;8.186;2022-07-06T01:41:24;99273.38;;;14.81;68.91
59531;BME280;45349;48.692;8.186;2022-07-06T01:43:50;99272.25;;;14.83;69.31
59531;BME280;45349;48.692;8.186;2022-07-06T01:46:18;99273.72;;;14.86;68.42
59531;BME280;45349;48.692;8.186;2022-07-06T01:48:46;99286.34;;;14.90;68.09
59531;BME280;45349;48.692;8.186;2022-07-06T01:51:14;99280.44;;;14.97;67.49
59531;BME280;45349;48.692;8.186;2022-07-06T01:53:43;99275.06;;;15.07;68.41
59531;BME280;45349;48.692;8.186;2022-07-06T01:56:12;99275.06;;;15.07;68.07
59531;BME280;45349;48.692;8.186;2022-07-06T01:58:40;99270.44;;;15.00;68.33
59531;BME280;45349;48.692;8.186;2022-07-06T02:01:08;99268.81;;;14.99;68.71
59531;BME280;45349;48.692;8.186;2022-07-06T02:03:37;99271.59;;;15.06;68.80
59531;BME280;45349;48.692;8.186;2022-07-06T02:06:05;99275.84;;;15.07;68.38
59531;BME280;45349;48.692;8.186;2022-07-06T02:08:33;99274.88;;;15.00;68.60
59531;BME280;45349;48.692;8.186;2022-07-06T02:11:00;99282.44;;;15.03;69.10
59531;BME280;45349;48.692;8.186;2022-07-06T02:13:30;99276.38;;;15.02;68.42
59531;BME280;45349;48.692;8.186;2022-07-06T02:15:59;99283.28;;;15.12;68.22
59531;BME280;45349;48.692;8.186;2022-07-06T02:18:26;99283.41;;;15.10;68.06
59531;BME280;45349;48.692;8.186;2022-07-06T02:20:55;99276.53;;;15.17;68.33
59531;BME280;45349;48.692;8.186;2022-07-06T02:23:23;99271.91;;;15.11;67.97
59531;BME280;45349;48.692;8.186;2022-07-06T02:25:52;99272.09;;;15.10;68.09
59531;BME280;45349;48.692;8.186;2022-07-06T02:28:20;99278.00;;;15.20;68.33
59531;BME280;45349;48.692;8.186;2022-07-06T02:30:48;99279.00;;;15.19;67.83
59531;BME280;45349;48.692;8.186;2022-07-06T02:33:15;99277.50;;;15.16;67.75
59531;BME280;45349;48.692;8.186;2022-07-06T02:35:43;99279.16;;;15.17;68.38
59531;BME280;45349;48.692;8.186;2022-07-06T02:38:11;99265.19;;;15.25;68.38
59531;BME280;45349;48.692;8.186;2022-07-06T02:40:39;99269.28;;;15.44;67.38
59531;BME280;45349;48.692;8.186;2022-07-06T02:43:06;99275.38;;;15.37;67.53
59531;BME280;45349;48.692;8.186;2022-07-06T02:45:35;99280.13;;;15.33;68.36
59531;BME280;45349;48.692;8.186;2022-07-06T02:48:04;99286.38;;;15.24;68.51
59531;BME280;45349;48.692;8.186;2022-07-06T02:50:33;99286.22;;;15.17;69.78
59531;BME280;45349;48.692;8.186;2022-07-06T02:53:00;99287.53;;;15.13;68.42
59531;BME280;45349;48.692;8.186;2022-07-06T02:55:29;99292.63;;;15.14;68.34
59531;BME280;45349;48.692;8.186;2022-07-06T02:57:56;99296.91;;;15.15;69.07
59531;BME280;45349;48.692;8.186;2022-07-06T03:00:23;99296.41;;;15.37;68.23
59531;BME280;45349;48.692;8.186;2022-07-06T03:02:51;99301.19;;;15.25;68.22
59531;BME280;45349;48.692;8.186;2022-07-06T03:05:19;99301.34;;;15.15;68.47
59531;BME280;45349;48.692;8.186;2022-07-06T03:07:47;99312.03;;;15.22;68.62
59531;BME280;45349;48.692;8.186;2022-07-06T03:10:15;99302.66;;;15.11;68.92
59531;BME280;45349;48.692;8.186;2022-07-06T03:12:42;99311.69;;;15.08;70.32
59531;BME280;45349;48.692;8.186;2022-07-06T03:15:10;99326.78;;;14.98;69.88
59531;BME280;45349;48.692;8.186;2022-07-06T03:17:39;99322.34;;;14.90;70.25
59531;BME280;45349;48.692;8.186;2022-07-06T03:20:08;99321.16;;;14.84;71.09
59531;BME280;45349;48.692;8.186;2022-07-06T03:22:36;99319.38;;;14.76;71.50
59531;BME280;45349;48.692;8.186;2022-07-06T03:25:05;99319.03;;;14.71;71.80
59531;BME280;45349;48.692;8.186;2022-07-06T03:27:34;99313.09;;;14.69;72.16
59531;BME280;45349;48.692;8.186;2022-07-06T03:30:03;99316.66;;;14.60;72.95
59531;BME280;45349;48.692;8.186;2022-07-06T03:32:32;99313.19;;;14.51;72.90
59531;BME280;45349;48.692;8.186;2022-07-06T03:35:02;99312.00;;;14.45;73.28
59531;BME280;45349;48.692;8.186;2022-07-06T03:37:31;99314.16;;;14.42;73.08
59531;BME280;45349;48.692;8.186;2022-07-06T03:40:00;99311.19;;;14.37;73.30
59531;BME280;45349;48.692;8.186;2022-07-06T03:42:28;99311.00;;;14.30;73.98
59531;BME280;45349;48.692;8.186;2022-07-06T03:44:56;99316.38;;;14.28;74.10
59531;BME280;45349;48.692;8.186;2022-07-06T03:47:25;99306.06;;;14.27;74.57
59531;BME280;45349;48.692;8.186;2022-07-06T03:50:10;99314.41;;;14.22;74.85
59531;BME280;45349;48.692;8.186;2022-07-06T03:52:38;99314.25;;;14.24;74.83
59531;BME280;45349;48.692;8.186;2022-07-06T03:55:09;99308.47;;;14.20;75.02
59531;BME280;45349;48.692;8.186;2022-07-06T03:57:38;99307.66;;;14.20;75.29
59531;BME280;45349;48.692;8.186;2022-07-06T04:00:09;99305.72;;;14.22;75.10
59531;BME280;45349;48.692;8.186;2022-07-06T04:02:42;99307.66;;;14.20;75.66
59531;BME280;45349;48.692;8.186;2022-07-06T04:05:15;99314.72;;;14.19;76.33
59531;BME280;45349;48.692;8.186;2022-07-06T04:07:48;99308.47;;;14.20;77.25
59531;BME280;45349;48.692;8.186;2022-07-06T04:10:16;99306.53;;;14.22;77.70
59531;BME280;45349;48.692;8.186;2022-07-06T04:12:44;99309.50;;;14.27;76.86
59531;BME280;45349;48.692;8.186;2022-07-06T04:15:13;99312.28;;;14.26;76.95
59531;BME280;45349;48.692;8.186;2022-07-06T04:17:40;99311.78;;;14.22;77.12
59531;BME280;45349;48.692;8.186;2022-07-06T04:20:29;99312.59;;;14.23;77.39
59531;BME280;45349;48.692;8.186;2022-07-06T04:22:57;99313.59;;;14.22;77.63
59531;BME280;45349;48.692;8.186;2022-07-06T04:25:27;99317.34;;;14.19;77.45
59531;BME280;45349;48.692;8.186;2022-07-06T04:27:58;99316.34;;;14.20;77.89
59531;BME280;45349;48.692;8.186;2022-07-06T04:30:26;99319.81;;;14.21;78.63
59531;BME280;45349;48.692;8.186;2022-07-06T04:32:54;99324.53;;;14.17;78.45
59531;BME280;45349;48.692;8.186;2022-07-06T04:35:24;99324.53;;;14.17;79.08
59531;BME280;45349;48.692;8.186;2022-07-06T04:37:53;99323.25;;;14.21;79.42
59531;BME280;45349;48.692;8.186;2022-07-06T04:40:20;99333.44;;;14.24;78.80
59531;BME280;45349;48.692;8.186;2022-07-06T04:42:52;99327.22;;;14.25;79.05
59531;BME280;45349;48.692;8.186;2022-07-06T04:45:21;99330.81;;;14.24;78.41
59531;BME280;45349;48.692;8.186;2022-07-06T04:47:47;99339.53;;;14.33;79.09
59531;BME280;45349;48.692;8.186;2022-07-06T04:50:17;99330.69;;;14.34;78.90
59531;BME280;45349;48.692;8.186;2022-07-06T04:52:45;99336.59;;;14.36;78.44
59531;BME280;45349;48.692;8.186;2022-07-06T04:55:13;99325.13;;;14.37;78.75
59531;BME280;45349;48.692;8.186;2022-07-06T04:57:41;99335.47;;;14.39;78.93
59531;BME280;45349;48.692;8.186;2022-07-06T05:00:12;99334.50;;;14.40;79.18
59531;BME280;45349;48.692;8.186;2022-07-06T05:02:41;99332.25;;;14.53;77.69
59531;BME280;45349;48.692;8.186;2022-07-06T05:05:09;99334.25;;;14.59;77.38
59531;BME280;45349;48.692;8.186;2022-07-06T05:07:37;99338.59;;;14.77;75.63
59531;BME280;45349;48.692;8.186;2022-07-06T05:10:07;99332.38;;;14.95;74.96
59531;BME280;45349;48.692;8.186;2022-07-06T05:12:34;99327.13;;;15.03;74.55
59531;BME280;45349;48.692;8.186;2022-07-06T05:15:02;99335.03;;;15.11;73.06
59531;BME280;45349;48.692;8.186;2022-07-06T05:17:31;99341.78;;;15.14;74.43
59531;BME280;45349;48.692;8.186;2022-07-06T05:20:00;99340.63;;;15.16;76.09
59531;BME280;45349;48.692;8.186;2022-07-06T05:22:31;99343.41;;;15.15;75.25
59531;BME280;45349;48.692;8.186;2022-07-06T05:24:58;99340.16;;;15.21;74.13
59531;BME280;45349;48.692;8.186;2022-07-06T05:27:25;99339.63;;;15.26;74.31
59531;BME280;45349;48.692;8.186;2022-07-06T05:29:54;99339.50;;;15.35;73.82
59531;BME280;45349;48.692;8.186;2022-07-06T05:32:21;99339.31;;;15.45;73.28
59531;BME280;45349;48.692;8.186;2022-07-06T05:34:50;99336.50;;;15.47;74.21
59531;BME280;45349;48.692;8.186;2022-07-06T05:37:19;99337.16;;;15.49;74.87
59531;BME280;45349;48.692;8.186;2022-07-06T05:39:47;99341.28;;;15.52;74.78
59531;BME280;45349;48.692;8.186;2022-07-06T05:42:16;99339.31;;;15.62;72.42
59531;BME280;45349;48.692;8.186;2022-07-06T05:44:45;99343.25;;;15.83;71.34
59531;BME280;45349;48.692;8.186;2022-07-06T05:47:13;99341.22;;;16.09;70.15
59531;BME280;45349;48.692;8.186;2022-07-06T05:49:59;99336.22;;;16.31;69.99
59531;BME280;45349;48.692;8.186;2022-07-06T05:52:44;99345.31;;;16.60;68.94
59531;BME280;45349;48.692;8.186;2022-07-06T05:55:13;99353.25;;;16.83;65.55
59531;BME280;45349;48.692;8.186;2022-07-06T05:57:42;99350.72;;;16.99;65.07
59531;BME280;45349;48.692;8.186;2022-07-06T06:00:10;99353.94;;;17.09;63.83
59531;BME280;45349;48.692;8.186;2022-07-06T06:02:51;99368.16;;;17.31;63.58
59531;BME280;45349;48.692;8.186;2022-07-06T06:05:21;99358.34;;;17.40;63.19
59531;BME280;45349;48.692;8.186;2022-07-06T06:07:50;99366.56;;;17.45;63.43
59531;BME280;45349;48.692;8.186;2022-07-06T06:10:21;99369.94;;;17.54;62.18
59531;BME280;45349;48.692;8.186;2022-07-06T06:12:52;99365.41;;;17.63;61.87
59531;BME280;45349;48.692;8.186;2022-07-06T06:15:19;99366.78;;;17.59;60.71
59531;BME280;45349;48.692;8.186;2022-07-06T06:17:46;99370.16;;;17.67;60.56
59531;BME280;45349;48.692;8.186;2022-07-06T06:20:13;99370.63;;;17.71;60.71
59531;BME280;45349;48.692;8.186;2022-07-06T06:22:47;99370.84;;;17.84;59.44
59531;BME280;45349;48.692;8.186;2022-07-06T06:25:14;99368.69;;;18.03;60.58
59531;BME280;45349;48.692;8.186;2022-07-06T06:27:41;99375.53;;;18.27;59.19
59531;BME280;45349;48.692;8.186;2022-07-06T06:30:09;99374.91;;;18.25;59.07
59531;BME280;45349;48.692;8.186;2022-07-06T06:32:37;99372.69;;;18.29;58.11
59531;BME280;45349;48.692;8.186;2022-07-06T06:35:05;99369.88;;;18.31;57.68
59531;BME280;45349;48.692;8.186;2022-07-06T06:37:32;99365.03;;;18.34;56.91
59531;BME280;45349;48.692;8.186;2022-07-06T06:40:00;99366.88;;;18.19;57.78
59531;BME280;45349;48.692;8.186;2022-07-06T06:42:28;99367.69;;;18.19;58.50
59531;BME280;45349;48.692;8.186;2022-07-06T06:44:56;99372.44;;;18.39;57.75
59531;BME280;45349;48.692;8.186;2022-07-06T06:47:24;99376.97;;;18.60;57.96
59531;BME280;45349;48.692;8.186;2022-07-06T06:49:50;99377.13;;;18.73;56.28
59531;BME280;45349;48.692;8.186;2022-07-06T06:52:18;99384.16;;;18.66;56.16
59531;BME280;45349;48.692;8.186;2022-07-06T06:54:45;99376.22;;;18.66;55.96
59531;BME280;45349;48.692;8.186;2022-07-06T06:57:13;99376.59;;;18.63;56.09
59531;BME280;45349;48.692;8.186;2022-07-06T06:59:40;99382.16;;;18.68;56.89
59531;BME280;45349;48.692;8.186;2022-07-06T07:02:07;99367.44;;;18.81;56.56
59531;BME280;45349;48.692;8.186;2022-07-06T07:04:34;99371.53;;;18.83;56.42
59531;BME280;45349;48.692;8.186;2022-07-06T07:07:01;99374.97;;;18.62;56.98
59531;BME280;45349;48.692;8.186;2022-07-06T07:09:28;99383.69;;;18.63;56.07
59531;BME280;45349;48.692;8.186;2022-07-06T07:11:55;99378.50;;;18.69;56.95
59531;BME280;45349;48.692;8.186;2022-07-06T07:14:24;99387.81;;;18.65;56.43
59531;BME280;45349;48.692;8.186;2022-07-06T07:17:11;99376.31;;;18.58;56.39
59531;BME280;45349;48.692;8.186;2022-07-06T07:19:40;99384.97;;;18.67;56.08
59531;BME280;45349;48.692;8.186;2022-07-06T07:22:08;99377.69;;;18.54;56.55
59531;BME280;45349;48.692;8.186;2022-07-06T07:24:34;99381.31;;;18.68;55.53
59531;BME280;45349;48.692;8.186;2022-07-06T07:27:02;99373.91;;;18.78;55.91
59531;BME280;45349;48.692;8.186;2022-07-06T07:29:32;99370.63;;;18.91;55.45
59531;BME280;45349;48.692;8.186;2022-07-06T07:32:00;99368.50;;;18.86;55.89
59531;BME280;45349;48.692;8.186;2022-07-06T07:34:27;99372.34;;;18.99;55.28
59531;BME280;45349;48.692;8.186;2022-07-06T07:36:54;99370.72;;;19.20;55.00
59531;BME280;45349;48.692;8.186;2022-07-06T07:39:21;99370.28;;;19.38;54.67
59531;BME280;45349;48.692;8.186;2022-07-06T07:41:48;99374.50;;;19.54;54.90
59531;BME280;45349;48.692;8.186;2022-07-06T07:44:15;99371.09;;;19.60;54.16
59531;BME280;45349;48.692;8.186;2022-07-06T07:46:44;99370.22;;;19.53;54.16
59531;BME280;45349;48.692;8.186;2022-07-06T07:49:11;99374.78;;;19.66;54.05
59531;BME280;45349;48.692;8.186;2022-07-06T07:51:38;99370.22;;;19.53;53.44
59531;BME280;45349;48.692;8.186;2022-07-06T07:54:06;99371.34;;;19.43;53.76
59531;BME280;45349;48.692;8.186;2022-07-06T07:56:33;99364.66;;;19.47;53.12
59531;BME280;45349;48.692;8.186;2022-07-06T07:59:00;99368.47;;;19.67;53.35
59531;BME280;45349;48.692;8.186;2022-07-06T08:01:30;99368.50;;;19.73;52.67
59531;BME280;45349;48.692;8.186;2022-07-06T08:03:59;99368.63;;;19.87;53.55
59531;BME280;45349;48.692;8.186;2022-07-06T08:06:26;99371.81;;;20.04;52.57
59531;BME280;45349;48.692;8.186;2022-07-06T08:08:53;99371.00;;;20.03;52.21
59531;BME280;45349;48.692;8.186;2022-07-06T08:11:20;99372.34;;;20.28;53.02
59531;BME280;45349;48.692;8.186;2022-07-06T08:13:47;99364.28;;;20.43;53.56
59531;BME280;45349;48.692;8.186;2022-07-06T08:16:14;99362.50;;;20.57;53.36
59531;BME280;45349;48.692;8.186;2022-07-06T08:18:41;99367.41;;;20.60;51.98
59531;BME280;45349;48.692;8.186;2022-07-06T08:21:09;99370.81;;;20.47;52.08
59531;BME280;45349;48.692;8.186;2022-07-06T08:23:36;99374.50;;;20.46;53.21
59531;BME280;45349;48.692;8.186;2022-07-06T08:26:03;99372.25;;;20.49;54.13
59531;BME280;45349;48.692;8.186;2022-07-06T08:28:31;99374.69;;;20.44;52.62
59531;BME280;45349;48.692;8.186;2022-07-06T08:30:58;99378.72;;;20.33;53.25
59531;BME280;45349;48.692;8.186;2022-07-06T08:33:26;99381.38;;;20.33;53.42
59531;BME280;45349;48.692;8.186;2022-07-06T08:35:52;99368.72;;;20.35;53.02
59531;BME280;45349;48.692;8.186;2022-07-06T08:38:21;99371.69;;;20.12;54.98
59531;BME280;45349;48.692;8.186;2022-07-06T08:40:49;99376.47;;;20.37;54.12
59531;BME280;45349;48.692;8.186;2022-07-06T08:43:17;99372.84;;;20.45;53.96
59531;BME280;45349;48.692;8.186;2022-07-06T08:45:45;99384.03;;;20.40;53.70
59531;BME280;45349;48.692;8.186;2022-07-06T08:48:36;99375.75;;;20.57;52.23
59531;BME280;45349;48.692;8.186;2022-07-06T08:51:04;99386.53;;;20.48;52.51
59531;BME280;45349;48.692;8.186;2022-07-06T08:53:32;99391.41;;;20.45;52.38
59531;BME280;45349;48.692;8.186;2022-07-06T08:56:00;99378.16;;;20.45;52.98
59531;BME280;45349;48.692;8.186;2022-07-06T08:58:27;99389.19;;;20.48;52.38
59531;BME280;45349;48.692;8.186;2022-07-06T09:00:55;99394.63;;;20.33;52.93
59531;BME280;45349;48.692;8.186;2022-07-06T09:03:41;99392.28;;;20.59;52.27
59531;BME280;45349;48.692;8.186;2022-07-06T09:06:08;99393.94;;;20.60;52.12
59531;BME280;45349;48.692;8.186;2022-07-06T09:08:37;99400.47;;;20.71;52.71
59531;BME280;45349;48.692;8.186;2022-07-06T09:11:03;99403.09;;;20.57;50.73
59531;BME280;45349;48.692;8.186;2022-07-06T09:13:31;99407.03;;;20.33;52.21
59531;BME280;45349;48.692;8.186;2022-07-06T09:16:09;99412.13;;;20.28;53.73
59531;BME280;45349;48.692;8.186;2022-07-06T09:18:36;99403.94;;;20.23;52.86
59531;BME280;45349;48.692;8.186;2022-07-06T09:21:04;99410.78;;;20.45;51.83
59531;BME280;45349;48.692;8.186;2022-07-06T09:23:31;99409.38;;;20.49;52.14
59531;BME280;45349;48.692;8.186;2022-07-06T09:26:01;99409.44;;;20.63;51.43
59531;BME280;45349;48.692;8.186;2022-07-06T09:28:40;99431.13;;;20.73;50.84
59531;BME280;45349;48.692;8.186;2022-07-06T09:31:07;99411.53;;;20.74;50.45
59531;BME280;45349;48.692;8.186;2022-07-06T09:33:35;99417.41;;;20.70;51.19
59531;BME280;45349;48.692;8.186;2022-07-06T09:36:03;99413.88;;;20.91;50.62
59531;BME280;45349;48.692;8.186;2022-07-06T09:38:31;99432.94;;;21.15;50.41
59531;BME280;45349;48.692;8.186;2022-07-06T09:40:59;99427.19;;;21.04;49.67
59531;BME280;45349;48.692;8.186;2022-07-06T09:43:29;99420.28;;;21.17;50.87
59531;BME280;45349;48.692;8.186;2022-07-06T09:45:57;99421.09;;;21.24;50.06
59531;BME280;45349;48.692;8.186;2022-07-06T09:48:25;99427.22;;;21.24;50.42
59531;BME280;45349;48.692;8.186;2022-07-06T09:50:54;99432.56;;;21.38;49.74
59531;BME280;45349;48.692;8.186;2022-07-06T09:53:22;99440.16;;;21.55;48.96
59531;BME280;45349;48.692;8.186;2022-07-06T09:55:52;99437.91;;;21.58;48.93
59531;BME280;45349;48.692;8.186;2022-07-06T09:58:21;99444.09;;;21.72;48.89
59531;BME280;45349;48.692;8.186;2022-07-06T10:00:49;99444.22;;;21.57;49.51
59531;BME280;45349;48.692;8.186;2022-07-06T10:03:17;99452.63;;;21.74;47.42
59531;BME280;45349;48.692;8.186;2022-07-06T10:05:45;99443.81;;;21.60;48.13
59531;BME280;45349;48.692;8.186;2022-07-06T10:08:13;99445.72;;;21.80;47.57
59531;BME280;45349;48.692;8.186;2022-07-06T10:10:42;99451.84;;;22.01;48.32
59531;BME280;45349;48.692;8.186;2022-07-06T10:13:10;99452.84;;;22.13;47.11
59531;BME280;45349;48.692;8.186;2022-07-06T10:15:40;99459.19;;;22.25;47.57
59531;BME280;45349;48.692;8.186;2022-07-06T10:18:08;99456.75;;;22.17;46.12
59531;BME280;45349;48.692;8.186;2022-07-06T10:20:37;99462.44;;;22.21;45.93
59531;BME280;45349;48.692;8.186;2022-07-06T10:23:06;99456.56;;;21.85;47.77
59531;BME280;45349;48.692;8.186;2022-07-06T10:25:52;99459.81;;;22.01;46.91
59531;BME280;45349;48.692;8.186;2022-07-06T10:28:22;99462.69;;;22.06;46.50
59531;BME280;45349;48.692;8.186;2022-07-06T10:30:50;99451.44;;;22.04;46.79
59531;BME280;45349;48.692;8.186;2022-07-06T10:33:17;99448.09;;;22.29;47.45
59531;BME280;45349;48.692;8.186;2022-07-06T10:35:45;99454.66;;;22.46;46.03
59531;BME280;45349;48.692;8.186;2022-07-06T10:38:12;99458.53;;;22.50;45.06
59531;BME280;45349;48.692;8.186;2022-07-06T10:40:41;99456.50;;;22.32;45.91
59531;BME280;45349;48.692;8.186;2022-07-06T10:43:31;99448.69;;;22.58;46.73
59531;BME280;45349;48.692;8.186;2022-07-06T10:46:05;99443.75;;;22.68;46.42
59531;BME280;45349;48.692;8.186;2022-07-06T10:48:37;99450.47;;;22.77;44.90
59531;BME280;45349;48.692;8.186;2022-07-06T10:51:05;99447.88;;;23.09;45.40
59531;BME280;45349;48.692;8.186;2022-07-06T10:53:33;99449.94;;;23.00;45.71
59531;BME280;45349;48.692;8.186;2022-07-06T10:56:02;99456.56;;;23.37;44.64
59531;BME280;45349;48.692;8.186;2022-07-06T10:58:35;99451.78;;;23.46;44.85
59531;BME280;45349;48.692;8.186;2022-07-06T11:01:04;99449.94;;;23.71;43.00
59531;BME280;45349;48.692;8.186;2022-07-06T11:03:33;99451.47;;;23.86;41.89
59531;BME280;45349;48.692;8.186;2022-07-06T11:06:02;99441.44;;;23.56;42.37
59531;BME280;45349;48.692;8.186;2022-07-06T11:08:42;99440.25;;;23.52;42.11
59531;BME280;45349;48.692;8.186;2022-07-06T11:11:13;99434.34;;;23.75;43.94
59531;BME280;45349;48.692;8.186;2022-07-06T11:13:49;99442.78;;;23.97;42.03
59531;BME280;45349;48.692;8.186;2022-07-06T11:16:18;99441.50;;;23.81;42.52
59531;BME280;45349;48.692;8.186;2022-07-06T11:18:50;99441.41;;;23.63;42.89
59531;BME280;45349;48.692;8.186;2022-07-06T11:21:34;99438.00;;;23.17;44.25
59531;BME280;45349;48.692;8.186;2022-07-06T11:24:02;99440.75;;;23.67;43.09
59531;BME280;45349;48.692;8.186;2022-07-06T11:26:30;99438.44;;;23.13;44.09
59531;BME280;45349;48.692;8.186;2022-07-06T11:28:58;99426.66;;;23.35;44.52
59531;BME280;45349;48.692;8.186;2022-07-06T11:31:28;99432.03;;;23.28;44.75
59531;BME280;45349;48.692;8.186;2022-07-06T11:33:55;99422.78;;;23.31;43.11
59531;BME280;45349;48.692;8.186;2022-07-06T11:36:22;99419.69;;;23.59;43.26
59531;BME280;45349;48.692;8.186;2022-07-06T11:38:50;99424.22;;;23.58;42.23
59531;BME280;45349;48.692;8.186;2022-07-06T11:41:17;99420.53;;;24.10;42.79
59531;BME280;45349;48.692;8.186;2022-07-06T11:43:45;99414.22;;;24.05;42.93
59531;BME280;45349;48.692;8.186;2022-07-06T11:46:23;99418.25;;;24.32;42.20
59531;BME280;45349;48.692;8.186;2022-07-06T11:48:53;99419.88;;;24.52;40.02
59531;BME280;45349;48.692;8.186;2022-07-06T11:51:21;99423.31;;;23.71;42.99
59531;BME280;45349;48.692;8.186;2022-07-06T11:53:50;99423.56;;;23.38;43.89
59531;BME280;45349;48.692;8.186;2022-07-06T11:56:18;99420.16;;;23.17;44.13
59531;BME280;45349;48.692;8.186;2022-07-06T11:58:49;99421.50;;;23.01;44.50
59531;BME280;45349;48.692;8.186;2022-07-06T12:01:16;99410.91;;;22.88;44.88
59531;BME280;45349;48.692;8.186;2022-07-06T12:03:44;99411.38;;;22.71;45.29
59531;BME280;45349;48.692;8.186;2022-07-06T12:06:17;99402.50;;;22.91;45.35
59531;BME280;45349;48.692;8.186;2022-07-06T12:08:46;99409.75;;;23.15;44.55
59531;BME280;45349;48.692;8.186;2022-07-06T12:11:19;99410.19;;;23.06;43.21
59531;BME280;45349;48.692;8.186;2022-07-06T12:13:49;99400.28;;;23.20;43.64
59531;BME280;45349;48.692;8.186;2022-07-06T12:16:17;99400.25;;;23.58;43.22
59531;BME280;45349;48.692;8.186;2022-07-06T12:18:46;99400.88;;;23.54;41.41
59531;BME280;45349;48.692;8.186;2022-07-06T12:21:17;99398.69;;;23.76;40.83
59531;BME280;45349;48.692;8.186;2022-07-06T12:23:48;99394.91;;;24.28;42.47
59531;BME280;45349;48.692;8.186;2022-07-06T12:26:17;99395.69;;;24.66;41.53
59531;BME280;45349;48.692;8.186;2022-07-06T12:28:45;99401.25;;;24.64;40.30
59531;BME280;45349;48.692;8.186;2022-07-06T12:31:31;99401.72;;;23.54;42.18
59531;BME280;45349;48.692;8.186;2022-07-06T12:33:58;99398.06;;;23.49;43.48
59531;BME280;45349;48.692;8.186;2022-07-06T12:36:46;99393.81;;;23.41;42.80
59531;BME280;45349;48.692;8.186;2022-07-06T12:39:15;99391.16;;;23.41;42.34
59531;BME280;45349;48.692;8.186;2022-07-06T12:41:47;99380.69;;;23.39;42.70
59531;BME280;45349;48.692;8.186;2022-07-06T12:44:17;99388.28;;;23.68;42.10
59531;BME280;45349;48.692;8.186;2022-07-06T12:46:43;99389.88;;;23.94;41.30
59531;BME280;45349;48.692;8.186;2022-07-06T12:49:15;99389.28;;;23.92;41.50
59531;BME280;45349;48.692;8.186;2022-07-06T12:51:59;99390.38;;;24.10;40.42
59531;BME280;45349;48.692;8.186;2022-07-06T12:54:30;99383.53;;;24.70;40.94
59531;BME280;45349;48.692;8.186;2022-07-06T12:57:03;99380.94;;;25.24;38.05
59531;BME280;45349;48.692;8.186;2022-07-06T12:59:34;99387.28;;;25.54;38.68
59531;BME280;45349;48.692;8.186;2022-07-06T13:02:02;99392.53;;;26.08;37.80
59531;BME280;45349;48.692;8.186;2022-07-06T13:04:30;99391.03;;;25.64;37.67
59531;BME280;45349;48.692;8.186;2022-07-06T13:07:01;99383.22;;;26.11;36.35
59531;BME280;45349;48.692;8.186;2022-07-06T13:09:29;99392.06;;;25.75;36.84